sensor_id;sensor_type;location;lat;lon;timestamp;P1;durP1;ratioP1;P2;durP2;ratioP2
26034;SDS011;13809;48.632;11.576;2024-02-15T00:04:06;4.83;;;4.07;;
26034;SDS011;13809;48.632;11.576;2024-02-15T00:09:09;5.20;;;4.30;;
26034;SDS011;13809;48.632;11.576;2024-02-15T00:14:14;5.33;;;3.83;;
26034;SDS011;13809;48.632;11.576;2024-02-15T00:19:18;4.30;;;3.90;;
26034;SDS011;13809;48.632;11.576;2024-02-15T00:24:23;3.87;;;3.57;;
26034;SDS011;13809;48.632;11.576;2024-02-15T00:29:27;4.23;;;3.60;;
26034;SDS011;13809;48.632;11.576;2024-02-15T00:34:31;3.87;;;3.57;;
26034;SDS011;13809;48.632;11.576;2024-02-15T00:39:35;4.37;;;3.60;;
26034;SDS011;13809;48.632;11.576;2024-02-15T00:44:40;3.77;;;3.47;;
26034;SDS011;13809;48.632;11.576;2024-02-15T00:49:43;4.07;;;3.70;;
26034;SDS011;13809;48.632;11.576;2024-02-15T00:54:47;3.70;;;3.40;;
26034;SDS011;13809;48.632;11.576;2024-02-15T00:59:51;4.27;;;3.60;;
26034;SDS011;13809;48.632;11.576;2024-02-15T01:04:54;3.83;;;3.53;;
26034;SDS011;13809;48.632;11.576;2024-02-15T01:10:00;3.67;;;3.37;;
26034;SDS011;13809;48.632;11.576;2024-02-15T01:15:06;3.07;;;2.73;;
26034;SDS011;13809;48.632;11.576;2024-02-15T01:20:10;2.87;;;2.67;;
26034;SDS011;13809;48.632;11.576;2024-02-15T01:25:14;3.10;;;2.80;;
26034;SDS011;13809;48.632;11.576;2024-02-15T01:30:20;3.00;;;2.63;;
26034;SDS011;13809;48.632;11.576;2024-02-15T01:35:23;2.90;;;2.70;;
26034;SDS011;13809;48.632;11.576;2024-02-15T01:40:26;3.00;;;2.70;;
26034;SDS011;13809;48.632;11.576;2024-02-15T01:45:31;4.00;;;2.90;;
26034;SDS011;13809;48.632;11.576;2024-02-15T01:50:34;2.70;;;2.50;;
26034;SDS011;13809;48.632;11.576;2024-02-15T01:55:38;2.93;;;2.73;;
26034;SDS011;13809;48.632;11.576;2024-02-15T02:00:43;2.97;;;2.77;;
26034;SDS011;13809;48.632;11.576;2024-02-15T02:05:47;2.93;;;2.63;;
26034;SDS011;13809;48.632;11.576;2024-02-15T02:10:50;2.87;;;2.67;;
26034;SDS011;13809;48.632;11.576;2024-02-15T02:15:56;2.93;;;2.50;;
26034;SDS011;13809;48.632;11.576;2024-02-15T02:21:01;2.90;;;2.70;;
26034;SDS011;13809;48.632;11.576;2024-02-15T02:26:08;2.63;;;2.40;;
26034;SDS011;13809;48.632;11.576;2024-02-15T02:31:11;2.70;;;2.50;;
26034;SDS011;13809;48.632;11.576;2024-02-15T02:36:15;4.20;;;2.60;;
26034;SDS011;13809;48.632;11.576;2024-02-15T02:41:20;2.90;;;2.60;;
26034;SDS011;13809;48.632;11.576;2024-02-15T02:46:24;3.20;;;2.50;;
26034;SDS011;13809;48.632;11.576;2024-02-15T02:51:28;2.13;;;2.00;;
26034;SDS011;13809;48.632;11.576;2024-02-15T02:56:32;2.40;;;2.10;;
26034;SDS011;13809;48.632;11.576;2024-02-15T03:01:36;2.20;;;2.00;;
26034;SDS011;13809;48.632;11.576;2024-02-15T03:06:41;3.03;;;2.50;;
26034;SDS011;13809;48.632;11.576;2024-02-15T03:11:45;2.30;;;2.10;;
26034;SDS011;13809;48.632;11.576;2024-02-15T03:16:48;2.20;;;2.10;;
26034;SDS011;13809;48.632;11.576;2024-02-15T03:21:52;2.13;;;1.97;;
26034;SDS011;13809;48.632;11.576;2024-02-15T03:26:56;2.30;;;2.10;;
26034;SDS011;13809;48.632;11.576;2024-02-15T03:31:59;2.30;;;2.10;;
26034;SDS011;13809;48.632;11.576;2024-02-15T03:37:02;1.93;;;1.83;;
26034;SDS011;13809;48.632;11.576;2024-02-15T03:42:07;2.40;;;2.20;;
26034;SDS011;13809;48.632;11.576;2024-02-15T03:47:10;2.47;;;2.27;;
26034;SDS011;13809;48.632;11.576;2024-02-15T03:52:15;2.83;;;2.50;;
26034;SDS011;13809;48.632;11.576;2024-02-15T03:57:19;3.17;;;2.80;;
26034;SDS011;13809;48.632;11.576;2024-02-15T04:02:22;3.33;;;2.73;;
26034;SDS011;13809;48.632;11.576;2024-02-15T04:07:28;4.07;;;2.43;;
26034;SDS011;13809;48.632;11.576;2024-02-15T04:12:32;2.30;;;2.10;;
26034;SDS011;13809;48.632;11.576;2024-02-15T04:17:36;2.40;;;2.30;;
26034;SDS011;13809;48.632;11.576;2024-02-15T04:22:40;2.37;;;2.17;;
26034;SDS011;13809;48.632;11.576;2024-02-15T04:27:46;2.50;;;2.30;;
26034;SDS011;13809;48.632;11.576;2024-02-15T04:32:51;2.43;;;2.27;;
26034;SDS011;13809;48.632;11.576;2024-02-15T04:37:55;5.70;;;5.00;;
26034;SDS011;13809;48.632;11.576;2024-02-15T04:43:00;5.97;;;5.37;;
26034;SDS011;13809;48.632;11.576;2024-02-15T04:48:06;5.63;;;5.13;;
26034;SDS011;13809;48.632;11.576;2024-02-15T04:53:10;6.07;;;5.10;;
26034;SDS011;13809;48.632;11.576;2024-02-15T04:58:14;6.23;;;5.63;;
26034;SDS011;13809;48.632;11.576;2024-02-15T05:03:18;6.40;;;5.80;;
26034;SDS011;13809;48.632;11.576;2024-02-15T05:08:21;6.07;;;5.47;;
26034;SDS011;13809;48.632;11.576;2024-02-15T05:13:25;4.50;;;4.10;;
26034;SDS011;13809;48.632;11.576;2024-02-15T05:18:29;3.30;;;3.00;;
26034;SDS011;13809;48.632;11.576;2024-02-15T05:23:32;3.00;;;2.80;;
26034;SDS011;13809;48.632;11.576;2024-02-15T05:28:37;3.73;;;3.43;;
26034;SDS011;13809;48.632;11.576;2024-02-15T05:33:40;3.10;;;2.63;;
26034;SDS011;13809;48.632;11.576;2024-02-15T05:38:46;3.20;;;2.90;;
26034;SDS011;13809;48.632;11.576;2024-02-15T05:43:52;4.90;;;3.97;;
26034;SDS011;13809;48.632;11.576;2024-02-15T05:48:55;3.73;;;3.33;;
26034;SDS011;13809;48.632;11.576;2024-02-15T05:53:58;3.77;;;2.30;;
26034;SDS011;13809;48.632;11.576;2024-02-15T05:59:03;2.80;;;2.60;;
26034;SDS011;13809;48.632;11.576;2024-02-15T06:04:11;2.43;;;2.23;;
26034;SDS011;13809;48.632;11.576;2024-02-15T06:09:14;2.70;;;2.50;;
26034;SDS011;13809;48.632;11.576;2024-02-15T06:14:19;2.80;;;2.60;;
26034;SDS011;13809;48.632;11.576;2024-02-15T06:19:22;3.10;;;2.80;;
26034;SDS011;13809;48.632;11.576;2024-02-15T06:24:26;4.23;;;3.40;;
26034;SDS011;13809;48.632;11.576;2024-02-15T06:29:31;3.77;;;3.47;;
26034;SDS011;13809;48.632;11.576;2024-02-15T06:34:51;3.30;;;3.10;;
26034;SDS011;13809;48.632;11.576;2024-02-15T06:40:12;2.47;;;2.27;;
26034;SDS011;13809;48.632;11.576;2024-02-15T06:45:16;4.00;;;3.13;;
26034;SDS011;13809;48.632;11.576;2024-02-15T06:50:21;2.67;;;2.47;;
26034;SDS011;13809;48.632;11.576;2024-02-15T06:55:24;3.20;;;2.90;;
26034;SDS011;13809;48.632;11.576;2024-02-15T07:00:29;2.83;;;2.63;;
26034;SDS011;13809;48.632;11.576;2024-02-15T07:05:32;2.83;;;2.60;;
26034;SDS011;13809;48.632;11.576;2024-02-15T07:10:37;5.23;;;2.83;;
26034;SDS011;13809;48.632;11.576;2024-02-15T07:15:42;3.67;;;3.37;;
26034;SDS011;13809;48.632;11.576;2024-02-15T07:20:45;3.13;;;2.80;;
26034;SDS011;13809;48.632;11.576;2024-02-15T07:25:49;2.57;;;2.37;;
26034;SDS011;13809;48.632;11.576;2024-02-15T07:30:56;3.00;;;2.63;;
26034;SDS011;13809;48.632;11.576;2024-02-15T07:35:59;3.03;;;2.77;;
26034;SDS011;13809;48.632;11.576;2024-02-15T07:41:03;2.77;;;2.57;;
26034;SDS011;13809;48.632;11.576;2024-02-15T07:46:08;3.10;;;2.80;;
26034;SDS011;13809;48.632;11.576;2024-02-15T07:51:17;2.70;;;2.50;;
26034;SDS011;13809;48.632;11.576;2024-02-15T07:56:22;3.30;;;3.00;;
26034;SDS011;13809;48.632;11.576;2024-02-15T08:01:26;3.23;;;2.93;;
26034;SDS011;13809;48.632;11.576;2024-02-15T08:06:32;3.53;;;3.07;;
26034;SDS011;13809;48.632;11.576;2024-02-15T08:11:38;5.13;;;4.63;;
26034;SDS011;13809;48.632;11.576;2024-02-15T08:16:43;3.40;;;3.10;;
26034;SDS011;13809;48.632;11.576;2024-02-15T08:21:46;3.10;;;2.80;;
26034;SDS011;13809;48.632;11.576;2024-02-15T08:26:52;3.50;;;3.00;;
26034;SDS011;13809;48.632;11.576;2024-02-15T08:31:57;3.07;;;2.60;;
26034;SDS011;13809;48.632;11.576;2024-02-15T08:37:00;2.80;;;2.50;;
26034;SDS011;13809;48.632;11.576;2024-02-15T08:42:04;2.80;;;2.60;;
26034;SDS011;13809;48.632;11.576;2024-02-15T08:47:10;2.80;;;2.60;;
26034;SDS011;13809;48.632;11.576;2024-02-15T08:52:13;2.50;;;2.30;;
26034;SDS011;13809;48.632;11.576;2024-02-15T08:57:18;2.67;;;2.47;;
26034;SDS011;13809;48.632;11.576;2024-02-15T09:02:23;2.80;;;2.50;;
26034;SDS011;13809;48.632;11.576;2024-02-15T09:07:26;4.03;;;2.80;;
26034;SDS011;13809;48.632;11.576;2024-02-15T09:12:29;3.57;;;3.10;;
26034;SDS011;13809;48.632;11.576;2024-02-15T09:17:34;5.13;;;3.13;;
26034;SDS011;13809;48.632;11.576;2024-02-15T09:22:41;3.90;;;3.60;;
26034;SDS011;13809;48.632;11.576;2024-02-15T09:27:45;2.70;;;2.50;;
26034;SDS011;13809;48.632;11.576;2024-02-15T09:32:51;2.70;;;2.50;;
26034;SDS011;13809;48.632;11.576;2024-02-15T09:37:54;2.83;;;2.63;;
26034;SDS011;13809;48.632;11.576;2024-02-15T09:42:57;2.57;;;2.37;;
26034;SDS011;13809;48.632;11.576;2024-02-15T09:48:04;2.70;;;2.50;;
26034;SDS011;13809;48.632;11.576;2024-02-15T09:53:10;2.33;;;2.13;;
26034;SDS011;13809;48.632;11.576;2024-02-15T09:58:14;2.33;;;2.17;;
26034;SDS011;13809;48.632;11.576;2024-02-15T10:03:19;2.60;;;2.40;;
26034;SDS011;13809;48.632;11.576;2024-02-15T10:08:24;2.37;;;2.00;;
26034;SDS011;13809;48.632;11.576;2024-02-15T10:13:27;2.43;;;2.13;;
26034;SDS011;13809;48.632;11.576;2024-02-15T10:18:34;2.80;;;1.83;;
26034;SDS011;13809;48.632;11.576;2024-02-15T10:23:38;1.90;;;1.80;;
26034;SDS011;13809;48.632;11.576;2024-02-15T10:28:41;2.00;;;1.80;;
26034;SDS011;13809;48.632;11.576;2024-02-15T10:33:46;2.07;;;1.80;;
26034;SDS011;13809;48.632;11.576;2024-02-15T10:38:49;2.53;;;1.90;;
26034;SDS011;13809;48.632;11.576;2024-02-15T10:43:52;1.90;;;1.80;;
26034;SDS011;13809;48.632;11.576;2024-02-15T10:48:58;2.33;;;1.90;;
26034;SDS011;13809;48.632;11.576;2024-02-15T10:54:02;2.90;;;1.90;;
26034;SDS011;13809;48.632;11.576;2024-02-15T10:59:09;2.97;;;2.00;;
26034;SDS011;13809;48.632;11.576;2024-02-15T11:04:20;2.63;;;1.97;;
26034;SDS011;13809;48.632;11.576;2024-02-15T11:09:24;3.87;;;3.00;;
26034;SDS011;13809;48.632;11.576;2024-02-15T11:14:28;2.57;;;1.63;;
26034;SDS011;13809;48.632;11.576;2024-02-15T11:19:44;3.03;;;2.23;;
26034;SDS011;13809;48.632;11.576;2024-02-15T11:24:49;1.53;;;1.40;;
26034;SDS011;13809;48.632;11.576;2024-02-15T11:29:54;2.57;;;1.70;;
26034;SDS011;13809;48.632;11.576;2024-02-15T11:35:05;1.70;;;1.60;;
26034;SDS011;13809;48.632;11.576;2024-02-15T11:40:14;2.10;;;1.40;;
26034;SDS011;13809;48.632;11.576;2024-02-15T11:45:18;6.03;;;3.43;;
26034;SDS011;13809;48.632;11.576;2024-02-15T11:50:23;3.27;;;1.77;;
26034;SDS011;13809;48.632;11.576;2024-02-15T11:55:27;3.10;;;2.17;;
26034;SDS011;13809;48.632;11.576;2024-02-15T12:00:30;2.50;;;1.80;;
26034;SDS011;13809;48.632;11.576;2024-02-15T12:05:54;2.30;;;1.57;;
26034;SDS011;13809;48.632;11.576;2024-02-15T12:11:15;2.23;;;1.87;;
26034;SDS011;13809;48.632;11.576;2024-02-15T12:16:36;1.57;;;1.10;;
26034;SDS011;13809;48.632;11.576;2024-02-15T12:21:58;2.67;;;1.70;;
26034;SDS011;13809;48.632;11.576;2024-02-15T12:27:04;1.63;;;1.53;;
26034;SDS011;13809;48.632;11.576;2024-02-15T12:32:07;1.80;;;1.30;;
26034;SDS011;13809;48.632;11.576;2024-02-15T12:37:12;2.60;;;1.20;;
26034;SDS011;13809;48.632;11.576;2024-02-15T12:42:15;1.80;;;0.97;;
26034;SDS011;13809;48.632;11.576;2024-02-15T12:47:20;1.83;;;1.20;;
26034;SDS011;13809;48.632;11.576;2024-02-15T12:52:37;2.47;;;1.40;;
26034;SDS011;13809;48.632;11.576;2024-02-15T12:57:42;1.20;;;1.10;;
26034;SDS011;13809;48.632;11.576;2024-02-15T13:02:50;1.10;;;1.00;;
26034;SDS011;13809;48.632;11.576;2024-02-15T13:07:56;1.23;;;1.07;;
26034;SDS011;13809;48.632;11.576;2024-02-15T13:13:00;1.50;;;1.10;;
26034;SDS011;13809;48.632;11.576;2024-02-15T13:18:03;9.53;;;1.77;;
26034;SDS011;13809;48.632;11.576;2024-02-15T13:23:09;2.00;;;1.33;;
26034;SDS011;13809;48.632;11.576;2024-02-15T13:28:21;1.53;;;1.43;;
26034;SDS011;13809;48.632;11.576;2024-02-15T13:33:26;1.30;;;1.17;;
26034;SDS011;13809;48.632;11.576;2024-02-15T13:38:34;1.20;;;1.00;;
26034;SDS011;13809;48.632;11.576;2024-02-15T13:43:38;3.07;;;1.47;;
26034;SDS011;13809;48.632;11.576;2024-02-15T13:48:42;1.60;;;1.33;;
26034;SDS011;13809;48.632;11.576;2024-02-15T13:53:47;1.50;;;1.40;;
26034;SDS011;13809;48.632;11.576;2024-02-15T13:58:50;2.57;;;1.40;;
26034;SDS011;13809;48.632;11.576;2024-02-15T14:03:53;2.27;;;1.30;;
26034;SDS011;13809;48.632;11.576;2024-02-15T14:08:59;3.80;;;2.70;;
26034;SDS011;13809;48.632;11.576;2024-02-15T14:14:03;2.57;;;1.53;;
26034;SDS011;13809;48.632;11.576;2024-02-15T14:19:07;2.03;;;1.47;;
26034;SDS011;13809;48.632;11.576;2024-02-15T14:24:11;1.60;;;1.50;;
26034;SDS011;13809;48.632;11.576;2024-02-15T14:29:15;2.80;;;1.63;;
26034;SDS011;13809;48.632;11.576;2024-02-15T14:34:22;1.50;;;1.40;;
26034;SDS011;13809;48.632;11.576;2024-02-15T14:39:28;4.33;;;1.60;;
26034;SDS011;13809;48.632;11.576;2024-02-15T14:44:31;2.40;;;1.70;;
26034;SDS011;13809;48.632;11.576;2024-02-15T14:49:35;1.80;;;1.60;;
26034;SDS011;13809;48.632;11.576;2024-02-15T14:54:41;1.90;;;1.63;;
26034;SDS011;13809;48.632;11.576;2024-02-15T14:59:44;2.30;;;1.50;;
26034;SDS011;13809;48.632;11.576;2024-02-15T15:04:48;2.23;;;1.60;;
26034;SDS011;13809;48.632;11.576;2024-02-15T15:10:21;2.50;;;1.60;;
26034;SDS011;13809;48.632;11.576;2024-02-15T15:15:41;1.90;;;1.60;;
26034;SDS011;13809;48.632;11.576;2024-02-15T15:20:48;3.10;;;1.70;;
26034;SDS011;13809;48.632;11.576;2024-02-15T15:25:53;3.07;;;1.80;;
26034;SDS011;13809;48.632;11.576;2024-02-15T15:30:56;2.00;;;1.60;;
26034;SDS011;13809;48.632;11.576;2024-02-15T15:36:00;1.67;;;1.57;;
26034;SDS011;13809;48.632;11.576;2024-02-15T15:41:07;9.67;;;8.77;;
26034;SDS011;13809;48.632;11.576;2024-02-15T15:46:12;3.83;;;3.27;;
26034;SDS011;13809;48.632;11.576;2024-02-15T15:51:17;1.80;;;1.70;;
26034;SDS011;13809;48.632;11.576;2024-02-15T15:56:22;2.13;;;1.57;;
26034;SDS011;13809;48.632;11.576;2024-02-15T16:01:25;2.13;;;1.30;;
26034;SDS011;13809;48.632;11.576;2024-02-15T16:06:29;1.53;;;1.10;;
26034;SDS011;13809;48.632;11.576;2024-02-15T16:11:34;1.40;;;1.30;;
26034;SDS011;13809;48.632;11.576;2024-02-15T16:16:37;2.20;;;1.40;;
26034;SDS011;13809;48.632;11.576;2024-02-15T16:21:41;1.10;;;1.10;;
26034;SDS011;13809;48.632;11.576;2024-02-15T16:26:46;1.30;;;1.20;;
26034;SDS011;13809;48.632;11.576;2024-02-15T16:31:51;2.17;;;1.30;;
26034;SDS011;13809;48.632;11.576;2024-02-15T16:36:55;1.33;;;1.23;;
26034;SDS011;13809;48.632;11.576;2024-02-15T16:41:59;3.20;;;2.47;;
26034;SDS011;13809;48.632;11.576;2024-02-15T16:47:05;2.20;;;2.00;;
26034;SDS011;13809;48.632;11.576;2024-02-15T16:52:11;2.30;;;2.10;;
26034;SDS011;13809;48.632;11.576;2024-02-15T16:57:19;2.10;;;1.90;;
26034;SDS011;13809;48.632;11.576;2024-02-15T17:02:22;2.37;;;1.67;;
26034;SDS011;13809;48.632;11.576;2024-02-15T17:07:25;1.57;;;1.47;;
26034;SDS011;13809;48.632;11.576;2024-02-15T17:12:31;1.97;;;1.87;;
26034;SDS011;13809;48.632;11.576;2024-02-15T17:17:35;2.93;;;2.63;;
26034;SDS011;13809;48.632;11.576;2024-02-15T17:22:39;4.47;;;2.90;;
26034;SDS011;13809;48.632;11.576;2024-02-15T17:27:44;4.57;;;3.70;;
26034;SDS011;13809;48.632;11.576;2024-02-15T17:32:48;7.73;;;5.43;;
26034;SDS011;13809;48.632;11.576;2024-02-15T17:37:51;6.70;;;5.60;;
26034;SDS011;13809;48.632;11.576;2024-02-15T17:42:57;6.53;;;5.87;;
26034;SDS011;13809;48.632;11.576;2024-02-15T17:48:00;6.20;;;5.60;;
26034;SDS011;13809;48.632;11.576;2024-02-15T17:53:03;6.67;;;5.70;;
26034;SDS011;13809;48.632;11.576;2024-02-15T17:58:08;8.63;;;6.70;;
26034;SDS011;13809;48.632;11.576;2024-02-15T18:03:11;7.07;;;6.37;;
26034;SDS011;13809;48.632;11.576;2024-02-15T18:08:14;7.67;;;6.97;;
26034;SDS011;13809;48.632;11.576;2024-02-15T18:13:20;9.87;;;8.87;;
26034;SDS011;13809;48.632;11.576;2024-02-15T18:18:24;10.10;;;8.90;;
26034;SDS011;13809;48.632;11.576;2024-02-15T18:23:30;11.60;;;8.80;;
26034;SDS011;13809;48.632;11.576;2024-02-15T18:28:35;13.57;;;10.80;;
26034;SDS011;13809;48.632;11.576;2024-02-15T18:33:38;18.70;;;12.47;;
26034;SDS011;13809;48.632;11.576;2024-02-15T18:38:43;18.40;;;12.77;;
26034;SDS011;13809;48.632;11.576;2024-02-15T18:43:49;16.90;;;12.33;;
26034;SDS011;13809;48.632;11.576;2024-02-15T18:48:53;14.23;;;10.40;;
26034;SDS011;13809;48.632;11.576;2024-02-15T18:53:56;13.07;;;9.67;;
26034;SDS011;13809;48.632;11.576;2024-02-15T18:59:01;10.60;;;8.83;;
26034;SDS011;13809;48.632;11.576;2024-02-15T19:04:07;9.13;;;7.93;;
26034;SDS011;13809;48.632;11.576;2024-02-15T19:09:10;9.23;;;7.80;;
26034;SDS011;13809;48.632;11.576;2024-02-15T19:14:15;8.30;;;5.83;;
26034;SDS011;13809;48.632;11.576;2024-02-15T19:19:19;6.50;;;5.67;;
26034;SDS011;13809;48.632;11.576;2024-02-15T19:24:23;6.83;;;5.63;;
26034;SDS011;13809;48.632;11.576;2024-02-15T19:29:27;6.07;;;5.47;;
26034;SDS011;13809;48.632;11.576;2024-02-15T19:34:31;6.10;;;5.50;;
26034;SDS011;13809;48.632;11.576;2024-02-15T19:39:35;6.10;;;5.50;;
26034;SDS011;13809;48.632;11.576;2024-02-15T19:44:41;7.03;;;5.70;;
26034;SDS011;13809;48.632;11.576;2024-02-15T19:49:46;6.07;;;5.10;;
26034;SDS011;13809;48.632;11.576;2024-02-15T19:54:49;5.97;;;5.33;;
26034;SDS011;13809;48.632;11.576;2024-02-15T19:59:54;5.40;;;4.90;;
26034;SDS011;13809;48.632;11.576;2024-02-15T20:04:58;6.73;;;4.80;;
26034;SDS011;13809;48.632;11.576;2024-02-15T20:10:01;4.67;;;4.27;;
26034;SDS011;13809;48.632;11.576;2024-02-15T20:15:08;4.80;;;4.30;;
26034;SDS011;13809;48.632;11.576;2024-02-15T20:20:12;4.80;;;4.37;;
26034;SDS011;13809;48.632;11.576;2024-02-15T20:25:18;4.43;;;4.03;;
26034;SDS011;13809;48.632;11.576;2024-02-15T20:30:23;4.37;;;3.97;;
26034;SDS011;13809;48.632;11.576;2024-02-15T20:35:27;4.40;;;4.00;;
26034;SDS011;13809;48.632;11.576;2024-02-15T20:40:30;4.07;;;3.77;;
26034;SDS011;13809;48.632;11.576;2024-02-15T20:45:35;4.40;;;4.00;;
26034;SDS011;13809;48.632;11.576;2024-02-15T20:50:38;4.97;;;4.53;;
26034;SDS011;13809;48.632;11.576;2024-02-15T20:55:42;4.80;;;4.30;;
26034;SDS011;13809;48.632;11.576;2024-02-15T21:00:47;5.17;;;4.67;;
26034;SDS011;13809;48.632;11.576;2024-02-15T21:05:51;5.00;;;4.50;;
26034;SDS011;13809;48.632;11.576;2024-02-15T21:10:55;4.60;;;4.20;;
26034;SDS011;13809;48.632;11.576;2024-02-15T21:16:02;4.73;;;4.30;;
26034;SDS011;13809;48.632;11.576;2024-02-15T21:21:08;4.90;;;4.47;;
26034;SDS011;13809;48.632;11.576;2024-02-15T21:26:12;4.50;;;4.10;;
26034;SDS011;13809;48.632;11.576;2024-02-15T21:31:17;4.40;;;4.00;;
26034;SDS011;13809;48.632;11.576;2024-02-15T21:36:21;4.43;;;4.03;;
26034;SDS011;13809;48.632;11.576;2024-02-15T21:41:24;5.17;;;4.27;;
26034;SDS011;13809;48.632;11.576;2024-02-15T21:46:29;4.93;;;4.33;;
26034;SDS011;13809;48.632;11.576;2024-02-15T21:51:33;4.63;;;4.23;;
26034;SDS011;13809;48.632;11.576;2024-02-15T21:56:36;4.77;;;4.37;;
26034;SDS011;13809;48.632;11.576;2024-02-15T22:01:41;5.03;;;4.53;;
26034;SDS011;13809;48.632;11.576;2024-02-15T22:06:44;4.73;;;4.33;;
26034;SDS011;13809;48.632;11.576;2024-02-15T22:11:48;5.07;;;4.57;;
26034;SDS011;13809;48.632;11.576;2024-02-15T22:16:53;4.93;;;4.43;;
26034;SDS011;13809;48.632;11.576;2024-02-15T22:21:56;5.27;;;4.67;;
26034;SDS011;13809;48.632;11.576;2024-02-15T22:26:59;5.73;;;4.27;;
26034;SDS011;13809;48.632;11.576;2024-02-15T22:32:04;4.57;;;4.17;;
26034;SDS011;13809;48.632;11.576;2024-02-15T22:37:08;4.50;;;4.10;;
26034;SDS011;13809;48.632;11.576;2024-02-15T22:42:14;4.73;;;4.33;;
26034;SDS011;13809;48.632;11.576;2024-02-15T22:47:19;5.60;;;4.20;;
26034;SDS011;13809;48.632;11.576;2024-02-15T22:52:22;4.87;;;3.93;;
26034;SDS011;13809;48.632;11.576;2024-02-15T22:57:25;4.60;;;3.90;;
26034;SDS011;13809;48.632;11.576;2024-02-15T23:02:31;4.30;;;3.90;;
26034;SDS011;13809;48.632;11.576;2024-02-15T23:07:37;4.57;;;4.17;;
26034;SDS011;13809;48.632;11.576;2024-02-15T23:12:40;6.43;;;4.67;;
26034;SDS011;13809;48.632;11.576;2024-02-15T23:17:45;5.00;;;4.50;;
26034;SDS011;13809;48.632;11.576;2024-02-15T23:22:48;4.70;;;4.30;;
26034;SDS011;13809;48.632;11.576;2024-02-15T23:27:52;4.50;;;4.07;;
26034;SDS011;13809;48.632;11.576;2024-02-15T23:32:56;4.50;;;4.10;;
26034;SDS011;13809;48.632;11.576;2024-02-15T23:38:00;4.90;;;4.50;;
26034;SDS011;13809;48.632;11.576;2024-02-15T23:43:21;4.67;;;4.27;;
26034;SDS011;13809;48.632;11.576;2024-02-15T23:48:25;4.83;;;4.20;;
26034;SDS011;13809;48.632;11.576;2024-02-15T23:53:29;4.97;;;4.20;;
26034;SDS011;13809;48.632;11.576;2024-02-15T23:58:32;4.40;;;4.10;;
